createdAt,value
2018-03-29T00:00:28.344Z,18.95
2018-03-29T00:00:59.972Z,14.77
2018-03-29T00:01:31.618Z,16.05
2018-03-29T00:02:03.295Z,18.23
2018-03-29T00:02:34.953Z,12.65
2018-03-29T00:03:06.568Z,16.73
2018-03-29T00:03:38.180Z,20.55
2018-03-29T00:04:09.880Z,17.02
2018-03-29T00:04:41.512Z,24.35
2018-03-29T00:05:13.159Z,21.85
2018-03-29T00:05:44.830Z,19.23
2018-03-29T00:06:16.480Z,27.90
2018-03-29T00:06:48.195Z,12.27
2018-03-29T00:07:19.836Z,19.27
2018-03-29T00:07:51.448Z,20.42
2018-03-29T00:08:23.122Z,21.52
2018-03-29T00:08:54.776Z,17.05
2018-03-29T00:09:26.410Z,18.83
2018-03-29T00:09:58.044Z,14.23
2018-03-29T00:10:29.705Z,14.60
2018-03-29T00:11:01.304Z,14.45
2018-03-29T00:11:32.956Z,19.80
2018-03-29T00:12:04.620Z,24.05
2018-03-29T00:12:36.266Z,23.25
2018-03-29T00:13:07.906Z,13.62
2018-03-29T00:13:39.552Z,19.37
2018-03-29T00:14:11.182Z,15.43
2018-03-29T00:14:42.886Z,19.33
2018-03-29T00:15:14.520Z,21.92
2018-03-29T00:15:46.176Z,17.42
2018-03-29T00:16:17.793Z,22.17
2018-03-29T00:16:49.423Z,19.35
2018-03-29T00:17:21.082Z,27.75
2018-03-29T00:17:52.712Z,19.92
2018-03-29T00:18:24.338Z,19.52
2018-03-29T00:18:55.970Z,18.17
2018-03-29T00:19:27.590Z,21.65
2018-03-29T00:19:59.208Z,19.55
2018-03-29T00:20:30.848Z,23.17
2018-03-29T00:21:02.503Z,19.15
2018-03-29T00:21:34.175Z,22.17
2018-03-29T00:22:05.828Z,22.23
2018-03-29T00:22:37.452Z,28.42
2018-03-29T00:23:09.113Z,20.65
2018-03-29T00:23:40.764Z,17.83
2018-03-29T00:24:12.390Z,19.70
2018-03-29T00:24:44.028Z,20.62
2018-03-29T00:25:15.717Z,34.08
2018-03-29T00:25:47.343Z,18.70
2018-03-29T00:26:18.970Z,20.75
2018-03-29T00:26:50.594Z,20.80
2018-03-29T00:27:22.248Z,25.60
2018-03-29T00:27:53.912Z,33.58
2018-03-29T00:28:25.534Z,29.20
2018-03-29T00:28:57.156Z,28.58
2018-03-29T00:29:28.813Z,25.90
2018-03-29T00:30:00.462Z,21.85
2018-03-29T00:30:32.082Z,28.15
2018-03-29T00:31:03.717Z,26.23
2018-03-29T00:31:35.351Z,25.30
2018-03-29T00:32:06.989Z,19.80
2018-03-29T00:32:38.610Z,21.65
2018-03-29T00:33:10.245Z,27.37
2018-03-29T00:33:41.934Z,24.58
2018-03-29T00:34:13.614Z,21.45
2018-03-29T00:34:45.289Z,26.12
2018-03-29T00:35:16.941Z,24.50
2018-03-29T00:35:48.567Z,27.52
2018-03-29T00:36:20.284Z,24.75
2018-03-29T00:36:51.910Z,35.75
2018-03-29T00:37:23.549Z,24.50
2018-03-29T00:37:55.202Z,26.60
2018-03-29T00:38:26.841Z,28.33
2018-03-29T00:38:58.460Z,33.72
2018-03-29T00:39:30.111Z,24.42
2018-03-29T00:40:01.836Z,28.38
2018-03-29T00:40:33.440Z,29.83
2018-03-29T00:41:05.117Z,31.50
2018-03-29T00:41:36.765Z,31.58
2018-03-29T00:42:08.433Z,28.70
2018-03-29T00:42:40.050Z,28.30
2018-03-29T00:43:11.689Z,32.47
2018-03-29T00:43:43.324Z,32.72
2018-03-29T00:44:15.010Z,25.60
2018-03-29T00:44:46.626Z,35.78
2018-03-29T00:45:18.305Z,34.78
2018-03-29T00:45:49.966Z,29.00
2018-03-29T00:46:21.629Z,27.83
2018-03-29T00:46:53.327Z,30.68
2018-03-29T00:47:24.988Z,34.95
2018-03-29T00:47:56.650Z,27.27
2018-03-29T00:48:28.270Z,36.30
2018-03-29T00:48:59.918Z,28.80
2018-03-29T00:49:31.538Z,30.30
2018-03-29T00:50:03.219Z,31.92
2018-03-29T00:50:34.888Z,28.95
2018-03-29T00:51:06.516Z,30.33
2018-03-29T00:51:38.164Z,30.42
2018-03-29T00:52:09.815Z,28.38
2018-03-29T00:52:41.466Z,34.25
2018-03-29T00:53:31.796Z,34.70
2018-03-29T00:54:03.405Z,30.42
2018-03-29T00:54:35.046Z,28.00
2018-03-29T00:55:06.712Z,32.33
2018-03-29T00:55:38.362Z,31.67
2018-03-29T00:56:09.988Z,32.65
2018-03-29T00:56:41.640Z,30.48
2018-03-29T00:57:13.258Z,27.30
2018-03-29T00:57:44.874Z,34.50
2018-03-29T00:58:16.573Z,31.10
2018-03-29T00:58:48.190Z,31.85
2018-03-29T00:59:19.861Z,31.90
2018-03-29T00:59:51.509Z,35.08
2018-03-29T01:00:23.193Z,37.47
2018-03-29T01:00:54.839Z,32.08
2018-03-29T01:01:26.456Z,32.97
2018-03-29T01:01:58.089Z,35.45
2018-03-29T01:02:29.771Z,30.58
2018-03-29T01:03:01.406Z,37.40
2018-03-29T01:03:33.036Z,36.08
2018-03-29T01:04:04.721Z,40.85
2018-03-29T01:04:36.384Z,34.58
2018-03-29T01:05:08.074Z,38.47
2018-03-29T01:05:39.740Z,38.22
2018-03-29T01:06:11.412Z,35.83
2018-03-29T01:06:43.076Z,28.80
2018-03-29T01:07:14.706Z,35.28
2018-03-29T01:07:46.394Z,40.03
2018-03-29T01:08:18.001Z,35.75
2018-03-29T01:08:49.649Z,30.95
2018-03-29T01:09:21.291Z,33.78
2018-03-29T01:09:52.962Z,35.72
2018-03-29T01:10:24.571Z,38.30
2018-03-29T01:10:56.240Z,32.40
2018-03-29T01:11:27.890Z,26.75
2018-03-29T01:11:59.572Z,25.17
2018-03-29T01:12:31.198Z,34.22
2018-03-29T01:13:02.826Z,34.60
2018-03-29T01:13:34.466Z,30.65
2018-03-29T01:14:06.098Z,33.75
2018-03-29T01:14:37.767Z,30.15
2018-03-29T01:15:09.424Z,32.22
2018-03-29T01:15:41.074Z,30.27
2018-03-29T01:16:12.728Z,29.52
2018-03-29T01:16:44.372Z,34.42
2018-03-29T01:17:16.111Z,31.37
2018-03-29T01:17:47.774Z,35.85
2018-03-29T01:18:19.452Z,33.22
2018-03-29T01:18:51.125Z,31.92
2018-03-29T01:19:22.762Z,33.60
2018-03-29T01:19:54.412Z,36.42
2018-03-29T01:20:26.114Z,30.30
2018-03-29T01:20:57.795Z,38.67
2018-03-29T01:21:29.500Z,30.83
2018-03-29T01:22:01.155Z,31.60
2018-03-29T01:22:32.842Z,36.40
2018-03-29T01:23:04.552Z,32.95
2018-03-29T01:23:36.180Z,33.13
2018-03-29T01:24:08.192Z,33.80
2018-03-29T01:24:39.824Z,40.60
2018-03-29T01:25:11.486Z,38.17
2018-03-29T01:25:43.111Z,35.53
2018-03-29T01:26:14.758Z,33.72
2018-03-29T01:26:46.398Z,36.25
2018-03-29T01:27:18.074Z,25.35
2018-03-29T01:27:49.711Z,36.88
2018-03-29T01:28:21.365Z,31.17
2018-03-29T01:28:52.990Z,32.25
2018-03-29T01:29:24.629Z,34.22
2018-03-29T01:29:56.264Z,32.90
2018-03-29T01:30:27.922Z,28.60
2018-03-29T01:30:59.572Z,30.90
2018-03-29T01:31:31.234Z,31.60
2018-03-29T01:32:02.891Z,28.08
2018-03-29T01:32:37.447Z,27.67
2018-03-29T01:33:09.093Z,29.60
2018-03-29T01:33:40.708Z,28.70
2018-03-29T01:34:12.361Z,33.72
2018-03-29T01:34:43.987Z,29.40
2018-03-29T01:35:15.605Z,35.40
2018-03-29T01:35:47.304Z,34.42
2018-03-29T01:36:18.922Z,30.80
2018-03-29T01:36:50.885Z,26.60
2018-03-29T01:37:22.518Z,29.30
2018-03-29T01:37:54.134Z,29.75
2018-03-29T01:38:25.794Z,29.77
2018-03-29T01:38:57.465Z,28.05
2018-03-29T01:39:29.094Z,29.87
2018-03-29T01:40:00.753Z,27.67
2018-03-29T01:40:32.369Z,31.62
2018-03-29T01:41:04.024Z,25.45
2018-03-29T01:41:35.661Z,33.97
2018-03-29T01:42:07.279Z,29.60
2018-03-29T01:42:38.942Z,31.92
2018-03-29T01:43:10.556Z,41.35
2018-03-29T01:43:42.171Z,29.23
2018-03-29T01:44:13.799Z,30.27
2018-03-29T01:44:45.443Z,28.98
2018-03-29T01:45:17.089Z,30.75
2018-03-29T01:45:48.736Z,31.23
2018-03-29T01:46:20.376Z,29.92
2018-03-29T01:46:52.050Z,36.03
2018-03-29T01:47:23.676Z,37.63
2018-03-29T01:47:55.315Z,35.75
2018-03-29T01:48:26.968Z,33.50
2018-03-29T01:48:58.599Z,31.87
2018-03-29T01:49:30.219Z,36.08
2018-03-29T01:50:01.855Z,38.90
2018-03-29T01:50:33.494Z,32.10
2018-03-29T01:51:05.123Z,31.37
2018-03-29T01:51:36.775Z,35.85
2018-03-29T01:52:08.470Z,31.67
2018-03-29T01:52:40.127Z,32.50
2018-03-29T01:53:11.752Z,31.20
2018-03-29T01:53:43.390Z,32.38
2018-03-29T01:54:15.023Z,36.20
2018-03-29T01:54:46.677Z,31.75
2018-03-29T01:55:18.305Z,34.25
2018-03-29T01:55:49.950Z,32.63
2018-03-29T01:56:21.574Z,35.22
2018-03-29T01:56:53.188Z,34.88
2018-03-29T01:57:24.841Z,37.72
2018-03-29T01:57:56.452Z,34.97
2018-03-29T01:58:28.075Z,32.58
2018-03-29T01:58:59.684Z,36.13
2018-03-29T01:59:31.323Z,39.75
2018-03-29T02:00:03.042Z,41.35
2018-03-29T02:00:34.686Z,38.28
2018-03-29T02:01:06.339Z,37.60
2018-03-29T02:01:37.994Z,34.33
2018-03-29T02:02:09.678Z,35.00
2018-03-29T02:02:41.308Z,37.25
2018-03-29T02:03:12.962Z,38.92
2018-03-29T02:03:44.638Z,36.33
2018-03-29T02:04:16.339Z,38.08
2018-03-29T02:04:48.010Z,39.13
2018-03-29T02:05:19.655Z,39.60
2018-03-29T02:05:51.318Z,40.30
2018-03-29T02:06:22.947Z,38.72
2018-03-29T02:06:54.589Z,38.00
2018-03-29T02:07:26.227Z,37.28
2018-03-29T02:07:57.850Z,32.22
2018-03-29T02:08:29.523Z,39.83
2018-03-29T02:09:01.230Z,38.10
2018-03-29T02:09:32.860Z,38.05
2018-03-29T02:10:04.514Z,39.33
2018-03-29T02:10:36.170Z,35.75
2018-03-29T02:11:07.808Z,38.70
2018-03-29T02:11:39.475Z,35.17
2018-03-29T02:12:11.187Z,34.22
2018-03-29T02:12:42.898Z,36.28
2018-03-29T02:13:14.565Z,37.08
2018-03-29T02:13:46.217Z,39.60
2018-03-29T02:14:17.852Z,37.55
2018-03-29T02:14:49.481Z,41.22
2018-03-29T02:15:21.123Z,40.60
2018-03-29T02:15:52.782Z,46.10
2018-03-29T02:16:24.445Z,40.42
2018-03-29T02:16:56.108Z,41.30
2018-03-29T02:17:27.768Z,35.40
2018-03-29T02:17:59.416Z,40.22
2018-03-29T02:18:31.120Z,34.97
2018-03-29T02:19:02.739Z,35.47
2018-03-29T02:19:34.348Z,33.00
2018-03-29T02:20:05.977Z,45.65
2018-03-29T02:20:37.616Z,38.30
2018-03-29T02:21:09.313Z,34.17
2018-03-29T02:21:40.963Z,41.00
2018-03-29T02:22:12.605Z,35.22
2018-03-29T02:22:44.248Z,38.58
2018-03-29T02:23:15.874Z,37.38
2018-03-29T02:23:47.510Z,37.65
2018-03-29T02:24:19.223Z,31.90
2018-03-29T02:24:50.881Z,32.10
2018-03-29T02:25:22.519Z,30.95
2018-03-29T02:25:54.175Z,32.40
2018-03-29T02:26:25.801Z,33.00
2018-03-29T02:26:57.481Z,33.03
2018-03-29T02:27:29.160Z,34.42
2018-03-29T02:28:00.789Z,35.97
2018-03-29T02:28:32.449Z,31.50
2018-03-29T02:29:04.082Z,35.38
2018-03-29T02:29:35.749Z,32.33
2018-03-29T02:30:07.373Z,32.65
2018-03-29T02:30:39.042Z,38.17
2018-03-29T02:31:10.709Z,37.72
2018-03-29T02:31:42.346Z,39.25
2018-03-29T02:32:13.983Z,34.47
2018-03-29T02:32:45.609Z,35.05
2018-03-29T02:33:17.232Z,36.90
2018-03-29T02:33:48.885Z,36.88
2018-03-29T02:34:20.508Z,32.95
2018-03-29T02:34:52.130Z,32.03
2018-03-29T02:35:23.793Z,31.80
2018-03-29T02:35:55.458Z,33.80
2018-03-29T02:36:27.090Z,36.13
2018-03-29T02:36:58.796Z,31.10
2018-03-29T02:37:30.420Z,29.48
2018-03-29T02:38:02.037Z,35.17
2018-03-29T02:38:33.673Z,34.38
2018-03-29T02:39:05.345Z,31.80
2018-03-29T02:39:36.991Z,32.17
2018-03-29T02:40:08.626Z,33.25
2018-03-29T02:40:40.247Z,30.77
2018-03-29T02:41:11.950Z,31.05
2018-03-29T02:41:43.608Z,33.17
2018-03-29T02:42:15.250Z,28.95
2018-03-29T02:42:46.874Z,31.92
2018-03-29T02:43:18.550Z,27.20
2018-03-29T02:43:50.197Z,32.55
2018-03-29T02:44:21.822Z,31.52
2018-03-29T02:44:53.462Z,29.08
2018-03-29T02:45:25.112Z,32.42
2018-03-29T02:45:56.747Z,31.30
2018-03-29T02:46:28.365Z,31.70
2018-03-29T02:46:59.968Z,32.75
2018-03-29T02:47:31.619Z,34.50
2018-03-29T02:48:03.327Z,33.80
2018-03-29T02:48:34.959Z,31.12
2018-03-29T02:49:06.580Z,31.98
2018-03-29T02:49:38.205Z,33.25
2018-03-29T02:50:09.893Z,31.00
2018-03-29T02:50:41.530Z,32.22
2018-03-29T02:51:13.181Z,32.70
2018-03-29T02:51:44.801Z,30.10
2018-03-29T02:52:16.441Z,30.00
2018-03-29T02:52:48.096Z,28.75
2018-03-29T02:53:19.720Z,32.50
2018-03-29T02:53:51.401Z,29.05
2018-03-29T02:54:23.028Z,30.23
2018-03-29T02:54:54.652Z,26.73
2018-03-29T02:55:26.304Z,30.30
2018-03-29T02:55:57.942Z,31.10
2018-03-29T02:56:29.557Z,29.90
2018-03-29T02:57:01.180Z,28.08
2018-03-29T02:57:32.838Z,28.23
2018-03-29T02:58:04.474Z,29.85
2018-03-29T02:58:36.149Z,31.42
2018-03-29T02:59:07.791Z,29.08
2018-03-29T02:59:39.407Z,34.47
2018-03-29T03:00:11.097Z,33.17
2018-03-29T03:00:42.789Z,32.70
2018-03-29T03:01:14.418Z,34.75
2018-03-29T03:01:46.076Z,33.50
2018-03-29T03:02:17.720Z,34.35
2018-03-29T03:02:49.374Z,31.25
2018-03-29T03:03:21.032Z,33.50
2018-03-29T03:03:52.711Z,32.45
2018-03-29T03:04:24.330Z,32.30
2018-03-29T03:04:55.968Z,35.70
2018-03-29T03:05:27.613Z,33.55
2018-03-29T03:05:59.276Z,36.55
2018-03-29T03:06:30.913Z,33.80
2018-03-29T03:07:02.591Z,28.73
2018-03-29T03:07:34.212Z,32.60
2018-03-29T03:08:05.841Z,29.33
2018-03-29T03:08:37.485Z,31.25
2018-03-29T03:09:09.197Z,30.23
2018-03-29T03:09:40.839Z,25.55
2018-03-29T03:10:12.467Z,32.28
2018-03-29T03:10:44.080Z,29.58
2018-03-29T03:11:15.743Z,30.85
2018-03-29T03:11:47.393Z,27.40
2018-03-29T03:12:19.011Z,30.45
2018-03-29T03:12:50.641Z,30.17
2018-03-29T03:13:22.276Z,30.83
2018-03-29T03:13:53.921Z,31.52
2018-03-29T03:14:25.603Z,30.30
2018-03-29T03:14:57.220Z,31.62
2018-03-29T03:15:28.885Z,30.15
2018-03-29T03:16:00.527Z,35.15
2018-03-29T03:16:32.149Z,32.20
2018-03-29T03:17:03.760Z,35.70
2018-03-29T03:17:35.393Z,37.95
2018-03-29T03:18:07.033Z,33.50
2018-03-29T03:18:38.657Z,34.65
2018-03-29T03:19:10.268Z,38.25
2018-03-29T03:19:41.930Z,37.72
2018-03-29T03:20:13.599Z,36.10
2018-03-29T03:20:45.249Z,35.90
2018-03-29T03:21:16.879Z,33.42
2018-03-29T03:21:48.495Z,36.50
2018-03-29T03:22:20.157Z,35.88
2018-03-29T03:22:51.761Z,40.15
2018-03-29T03:23:23.409Z,32.30
2018-03-29T03:23:55.084Z,39.13
2018-03-29T03:24:26.701Z,35.15
2018-03-29T03:24:58.389Z,39.72
2018-03-29T03:25:30.019Z,36.63
2018-03-29T03:26:01.658Z,43.97
2018-03-29T03:26:33.293Z,43.83
2018-03-29T03:27:04.963Z,41.05
2018-03-29T03:27:36.610Z,37.00
2018-03-29T03:28:08.249Z,44.47
2018-03-29T03:28:39.917Z,36.20
2018-03-29T03:29:11.550Z,39.10
2018-03-29T03:29:43.167Z,40.97
2018-03-29T03:30:14.802Z,40.67
2018-03-29T03:30:46.447Z,38.92
2018-03-29T03:31:18.063Z,43.22
2018-03-29T03:31:49.735Z,39.97
2018-03-29T03:32:21.369Z,42.45
2018-03-29T03:32:52.998Z,39.50
2018-03-29T03:33:24.615Z,41.03
2018-03-29T03:33:56.249Z,42.40
2018-03-29T03:34:27.882Z,34.40
2018-03-29T03:34:59.537Z,46.80
2018-03-29T03:35:31.167Z,45.30
2018-03-29T03:36:02.839Z,37.72
2018-03-29T03:36:34.487Z,36.80
2018-03-29T03:37:06.173Z,37.80
2018-03-29T03:37:37.799Z,39.85
2018-03-29T03:38:09.453Z,37.67
2018-03-29T03:38:41.107Z,37.33
2018-03-29T03:39:12.743Z,36.00
2018-03-29T03:39:44.401Z,39.03
2018-03-29T03:40:16.035Z,35.35
2018-03-29T03:40:47.725Z,40.40
2018-03-29T03:41:19.345Z,36.00
2018-03-29T03:41:50.971Z,38.83
2018-03-29T03:42:22.588Z,42.08
2018-03-29T03:42:54.225Z,34.10
2018-03-29T03:43:25.853Z,35.25
2018-03-29T03:43:57.480Z,40.63
2018-03-29T03:44:29.203Z,46.10
2018-03-29T03:45:00.897Z,41.53
2018-03-29T03:45:32.555Z,38.20
2018-03-29T03:46:04.191Z,48.38
2018-03-29T03:46:35.821Z,44.03
2018-03-29T03:47:07.457Z,40.00
2018-03-29T03:47:39.076Z,44.05
2018-03-29T03:48:10.725Z,37.35
2018-03-29T03:48:42.364Z,47.25
2018-03-29T03:49:14.021Z,43.55
2018-03-29T03:49:45.637Z,48.33
2018-03-29T03:50:17.273Z,43.58
2018-03-29T03:50:48.971Z,47.00
2018-03-29T03:51:20.607Z,44.83
2018-03-29T03:51:52.233Z,41.83
2018-03-29T03:52:23.861Z,43.47
2018-03-29T03:52:55.501Z,49.60
2018-03-29T03:53:27.178Z,41.45
2018-03-29T03:53:58.791Z,41.53
2018-03-29T03:54:30.419Z,47.30
2018-03-29T03:55:02.053Z,37.97
2018-03-29T03:55:33.695Z,36.92
2018-03-29T03:56:05.323Z,34.53
2018-03-29T03:56:37.015Z,35.40
2018-03-29T03:57:08.657Z,38.58
2018-03-29T03:57:40.297Z,36.22
2018-03-29T03:58:11.930Z,35.88
2018-03-29T03:58:43.553Z,38.35
2018-03-29T03:59:15.195Z,41.40
2018-03-29T03:59:46.846Z,39.38
2018-03-29T04:00:18.492Z,39.83
2018-03-29T04:00:50.145Z,36.70
2018-03-29T04:01:21.773Z,38.88
2018-03-29T04:01:53.458Z,43.13
2018-03-29T04:02:25.141Z,32.95
2018-03-29T04:02:56.768Z,38.45
2018-03-29T04:03:28.409Z,40.90
2018-03-29T04:04:00.041Z,34.97
2018-03-29T04:04:31.691Z,37.30
2018-03-29T04:05:03.362Z,34.55
2018-03-29T04:05:35.005Z,38.72
2018-03-29T04:06:06.631Z,38.70
2018-03-29T04:06:38.329Z,38.00
2018-03-29T04:07:09.981Z,38.00
2018-03-29T04:07:41.617Z,40.38
2018-03-29T04:08:13.321Z,37.50
2018-03-29T04:08:44.933Z,39.92
2018-03-29T04:09:16.585Z,34.85
2018-03-29T04:09:48.241Z,36.55
2018-03-29T04:10:19.859Z,35.70
2018-03-29T04:10:51.551Z,39.42
2018-03-29T04:11:23.220Z,36.72
2018-03-29T04:11:54.853Z,30.70
2018-03-29T04:12:26.508Z,31.55
2018-03-29T04:12:58.174Z,31.27
2018-03-29T04:13:29.833Z,33.58
2018-03-29T04:14:01.483Z,32.80
2018-03-29T04:14:33.146Z,28.38
2018-03-29T04:15:04.797Z,30.33
2018-03-29T04:15:36.443Z,31.33
2018-03-29T04:16:08.156Z,30.55
2018-03-29T04:16:39.797Z,26.05
2018-03-29T04:17:11.408Z,29.90
2018-03-29T04:17:43.060Z,28.23
2018-03-29T04:18:14.676Z,27.62
2018-03-29T04:18:46.342Z,27.55
2018-03-29T04:19:17.989Z,30.12
2018-03-29T04:19:49.627Z,26.67
2018-03-29T04:20:21.241Z,32.38
2018-03-29T04:20:52.860Z,30.52
2018-03-29T04:21:24.509Z,33.03
2018-03-29T04:21:56.156Z,29.98
2018-03-29T04:22:27.793Z,25.77
2018-03-29T04:22:59.412Z,29.70
2018-03-29T04:23:31.089Z,29.63
2018-03-29T04:24:02.719Z,28.00
2018-03-29T04:24:34.417Z,34.00
2018-03-29T04:25:06.051Z,29.00
2018-03-29T04:25:37.681Z,29.20
2018-03-29T04:26:09.303Z,27.87
2018-03-29T04:26:40.917Z,28.40
2018-03-29T04:27:12.537Z,28.87
2018-03-29T04:27:44.307Z,33.33
2018-03-29T04:28:15.937Z,29.55
2018-03-29T04:28:47.593Z,31.62
2018-03-29T04:29:19.248Z,26.23
2018-03-29T04:29:50.873Z,30.95
2018-03-29T04:30:22.584Z,29.87
2018-03-29T04:30:54.223Z,29.55
2018-03-29T04:31:25.909Z,29.20
2018-03-29T04:31:57.553Z,34.40
2018-03-29T04:32:29.208Z,23.90
2018-03-29T04:33:00.881Z,30.33
2018-03-29T04:33:32.561Z,29.75
2018-03-29T04:34:04.174Z,26.95
2018-03-29T04:34:35.858Z,32.58
2018-03-29T04:35:07.541Z,29.45
2018-03-29T04:35:39.217Z,27.98
2018-03-29T04:36:10.867Z,29.48
2018-03-29T04:36:42.502Z,26.83
2018-03-29T04:37:14.119Z,34.70
2018-03-29T04:37:45.745Z,28.77
2018-03-29T04:38:17.390Z,26.55
2018-03-29T04:38:49.047Z,28.90
2018-03-29T04:39:20.672Z,30.88
2018-03-29T04:39:52.379Z,32.22
2018-03-29T04:40:24.045Z,29.73
2018-03-29T04:40:55.680Z,28.67
2018-03-29T04:41:27.325Z,36.97
2018-03-29T04:41:58.941Z,30.37
2018-03-29T04:42:30.569Z,32.03
2018-03-29T04:43:02.191Z,28.42
2018-03-29T04:43:33.797Z,29.45
2018-03-29T04:44:05.417Z,28.80
2018-03-29T04:44:37.053Z,29.77
2018-03-29T04:45:08.705Z,36.55
2018-03-29T04:45:40.349Z,28.98
2018-03-29T04:46:12.015Z,31.70
2018-03-29T04:46:43.693Z,28.48
2018-03-29T04:47:15.334Z,27.25
2018-03-29T04:47:46.978Z,28.00
2018-03-29T04:48:18.711Z,30.80
2018-03-29T04:48:50.321Z,29.45
2018-03-29T04:49:21.957Z,28.08
2018-03-29T04:49:53.589Z,26.40
2018-03-29T04:50:25.219Z,31.23
2018-03-29T04:50:56.862Z,29.33
2018-03-29T04:51:28.543Z,30.20
2018-03-29T04:52:00.167Z,26.95
2018-03-29T04:52:31.810Z,25.92
2018-03-29T04:53:03.446Z,28.15
2018-03-29T04:53:35.084Z,26.60
2018-03-29T04:54:06.775Z,28.50
2018-03-29T04:54:38.393Z,29.35
2018-03-29T04:55:10.049Z,30.12
2018-03-29T04:55:41.688Z,29.20
2018-03-29T04:56:13.350Z,29.30
2018-03-29T04:56:44.990Z,26.27
2018-03-29T04:57:16.629Z,27.23
2018-03-29T04:57:48.276Z,28.30
2018-03-29T04:58:19.920Z,26.62
2018-03-29T04:58:51.540Z,27.98
2018-03-29T04:59:23.181Z,30.55
2018-03-29T04:59:54.809Z,27.15
2018-03-29T05:00:26.435Z,26.35
2018-03-29T05:00:58.092Z,25.15
2018-03-29T05:01:29.742Z,31.35
2018-03-29T05:02:01.435Z,27.65
2018-03-29T05:02:33.052Z,25.37
2018-03-29T05:03:04.672Z,30.60
2018-03-29T05:03:36.296Z,31.42
2018-03-29T05:04:07.932Z,26.62
2018-03-29T05:04:39.572Z,26.00
2018-03-29T05:05:11.220Z,25.55
2018-03-29T05:05:42.886Z,28.90
2018-03-29T05:06:14.531Z,29.12
2018-03-29T05:06:46.189Z,30.62
2018-03-29T05:07:17.833Z,25.65
2018-03-29T05:07:49.476Z,29.45
2018-03-29T05:08:21.120Z,28.70
2018-03-29T05:08:52.796Z,31.83
2018-03-29T05:09:24.431Z,31.05
2018-03-29T05:09:56.075Z,31.40
2018-03-29T05:10:27.687Z,34.47
2018-03-29T05:10:59.457Z,33.85
2018-03-29T05:11:31.100Z,35.03
2018-03-29T05:12:02.755Z,33.17
2018-03-29T05:12:34.401Z,36.20
2018-03-29T05:13:06.035Z,38.35
2018-03-29T05:13:37.703Z,36.97
2018-03-29T05:14:09.317Z,44.15
2018-03-29T05:14:40.992Z,37.15
2018-03-29T05:15:12.635Z,36.88
2018-03-29T05:15:44.268Z,37.15
2018-03-29T05:16:15.951Z,39.55
2018-03-29T05:16:47.593Z,37.13
2018-03-29T05:17:19.221Z,37.28
2018-03-29T05:17:50.846Z,38.88
2018-03-29T05:18:22.503Z,38.90
2018-03-29T05:18:54.152Z,39.10
2018-03-29T05:19:25.776Z,39.72
2018-03-29T05:19:57.436Z,44.47
2018-03-29T05:20:29.090Z,46.63
2018-03-29T05:21:00.720Z,52.65
2018-03-29T05:21:32.361Z,39.22
2018-03-29T05:22:04.014Z,43.65
2018-03-29T05:22:35.624Z,45.88
2018-03-29T05:23:07.298Z,45.10
2018-03-29T05:23:38.953Z,41.47
2018-03-29T05:24:10.590Z,44.20
2018-03-29T05:24:42.287Z,45.10
2018-03-29T05:25:13.936Z,51.10
2018-03-29T05:25:45.594Z,41.15
2018-03-29T05:26:17.229Z,41.83
2018-03-29T05:26:48.910Z,47.22
2018-03-29T05:27:25.612Z,47.65
2018-03-29T05:27:57.255Z,52.55
2018-03-29T05:28:28.850Z,61.13
2018-03-29T05:29:00.503Z,55.33
2018-03-29T05:29:32.186Z,54.00
2018-03-29T05:30:03.872Z,57.15
2018-03-29T05:30:35.533Z,53.00
2018-03-29T05:31:07.165Z,49.20
2018-03-29T05:31:38.854Z,48.97
2018-03-29T05:32:10.496Z,44.83
2018-03-29T05:32:42.106Z,42.80
2018-03-29T05:33:13.743Z,41.95
2018-03-29T05:33:45.451Z,52.62
2018-03-29T05:34:17.077Z,52.05
2018-03-29T05:34:48.730Z,41.95
2018-03-29T05:35:20.343Z,50.00
2018-03-29T05:35:52.020Z,47.22
2018-03-29T05:36:23.651Z,39.03
2018-03-29T05:36:55.293Z,48.08
2018-03-29T05:37:26.943Z,45.80
2018-03-29T05:37:58.573Z,49.85
2018-03-29T05:38:30.225Z,47.00
2018-03-29T05:39:01.853Z,43.85
2018-03-29T05:39:33.489Z,53.33
2018-03-29T05:40:05.116Z,45.35
2018-03-29T05:40:36.732Z,42.05
2018-03-29T05:41:08.371Z,38.63
2018-03-29T05:41:40.009Z,49.60
2018-03-29T05:42:11.627Z,46.72
2018-03-29T05:42:43.278Z,39.47
2018-03-29T05:43:14.904Z,47.85
2018-03-29T05:43:46.553Z,44.38
2018-03-29T05:44:18.192Z,43.75
2018-03-29T05:44:49.820Z,50.33
2018-03-29T05:45:21.500Z,44.63
2018-03-29T05:45:53.120Z,56.05
2018-03-29T05:46:24.732Z,48.55
2018-03-29T05:46:56.352Z,44.03
2018-03-29T05:47:28.000Z,44.42
2018-03-29T05:47:59.677Z,58.63
2018-03-29T05:48:31.408Z,47.03
2018-03-29T05:49:03.078Z,47.30
2018-03-29T05:49:34.709Z,44.80
2018-03-29T05:50:06.339Z,45.63
2018-03-29T05:50:37.973Z,48.22
2018-03-29T05:51:09.617Z,52.05
2018-03-29T05:51:41.225Z,50.12
2018-03-29T05:52:12.886Z,46.70
2018-03-29T05:52:44.486Z,40.00
2018-03-29T05:53:16.119Z,42.42
2018-03-29T05:53:47.778Z,47.72
2018-03-29T05:54:19.456Z,48.15
2018-03-29T05:54:51.141Z,41.03
2018-03-29T05:55:22.751Z,43.90
2018-03-29T05:55:54.398Z,47.55
2018-03-29T05:56:26.031Z,46.83
2018-03-29T05:56:57.659Z,44.30
2018-03-29T05:57:29.341Z,48.87
2018-03-29T05:58:00.967Z,54.05
2018-03-29T05:58:32.587Z,54.92
2018-03-29T05:59:04.213Z,51.42
2018-03-29T05:59:35.888Z,53.90
2018-03-29T06:00:07.597Z,57.47
2018-03-29T06:00:39.216Z,61.95
2018-03-29T06:01:10.890Z,62.50
2018-03-29T06:01:42.557Z,56.17
2018-03-29T06:02:14.192Z,55.00
2018-03-29T06:02:45.817Z,53.17
2018-03-29T06:03:17.423Z,52.95
2018-03-29T06:03:49.092Z,54.15
2018-03-29T06:04:20.743Z,53.45
2018-03-29T06:04:52.383Z,51.97
2018-03-29T06:05:24.006Z,48.33
2018-03-29T06:05:55.681Z,56.45
2018-03-29T06:06:27.316Z,56.60
2018-03-29T06:06:58.984Z,58.45
2018-03-29T06:07:30.625Z,53.85
2018-03-29T06:08:02.279Z,55.12
2018-03-29T06:08:33.901Z,56.45
2018-03-29T06:09:05.557Z,64.82
2018-03-29T06:09:37.249Z,58.08
2018-03-29T06:10:08.912Z,62.67
2018-03-29T06:10:40.560Z,71.60
2018-03-29T06:11:12.210Z,71.70
2018-03-29T06:11:43.865Z,80.60
2018-03-29T06:12:15.533Z,65.20
2018-03-29T06:12:47.208Z,83.78
2018-03-29T06:13:18.818Z,81.47
2018-03-29T06:13:56.652Z,84.53
2018-03-29T06:14:34.353Z,72.50
2018-03-29T06:15:12.235Z,79.75
2018-03-29T06:15:43.918Z,72.53
2018-03-29T06:16:16.593Z,82.78
2018-03-29T06:16:48.276Z,76.28
2018-03-29T06:17:25.991Z,68.82
2018-03-29T06:17:59.673Z,66.22
2018-03-29T06:18:31.359Z,75.55
2018-03-29T06:19:08.001Z,73.43
2018-03-29T06:19:39.640Z,68.53
2018-03-29T06:20:11.309Z,65.97
2018-03-29T06:20:42.927Z,69.78
2018-03-29T06:21:14.564Z,60.25
2018-03-29T06:21:46.206Z,54.63
2018-03-29T06:22:17.856Z,54.30
2018-03-29T06:22:49.502Z,64.87
2018-03-29T06:23:21.140Z,61.67
2018-03-29T06:23:52.747Z,65.05
2018-03-29T06:24:24.414Z,61.42
2018-03-29T06:24:56.102Z,63.13
2018-03-29T06:25:27.722Z,61.42
2018-03-29T06:25:59.347Z,64.03
2018-03-29T06:26:30.990Z,56.28
2018-03-29T06:27:02.626Z,61.45
2018-03-29T06:27:34.253Z,60.75
2018-03-29T06:28:05.881Z,64.45
2018-03-29T06:28:37.525Z,65.47
2018-03-29T06:29:09.152Z,68.18
2018-03-29T06:29:40.821Z,59.33
2018-03-29T06:30:12.492Z,62.60
2018-03-29T06:30:44.129Z,64.70
2018-03-29T06:31:15.758Z,60.75
2018-03-29T06:31:47.373Z,60.90
2018-03-29T06:32:19.059Z,65.35
2018-03-29T06:32:50.683Z,63.45
2018-03-29T06:33:22.328Z,60.42
2018-03-29T06:33:53.962Z,64.50
2018-03-29T06:34:25.620Z,66.72
2018-03-29T06:34:57.234Z,60.67
2018-03-29T06:35:28.856Z,55.95
2018-03-29T06:36:00.492Z,58.15
2018-03-29T06:36:32.111Z,63.85
2018-03-29T06:37:03.752Z,65.97
2018-03-29T06:37:35.402Z,65.07
2018-03-29T06:38:07.049Z,70.62
2018-03-29T06:38:38.740Z,60.42
2018-03-29T06:39:10.322Z,61.50
2018-03-29T06:39:41.971Z,68.82
2018-03-29T06:40:13.596Z,58.50
2018-03-29T06:40:45.240Z,66.62
2018-03-29T06:41:16.892Z,69.28
2018-03-29T06:41:48.544Z,71.28
2018-03-29T06:42:20.190Z,59.33
2018-03-29T06:42:51.795Z,59.17
2018-03-29T06:43:23.445Z,66.10
2018-03-29T06:43:55.074Z,64.80
2018-03-29T06:44:26.766Z,62.03
2018-03-29T06:44:58.375Z,75.45
2018-03-29T06:45:30.005Z,69.43
2018-03-29T06:46:01.654Z,66.37
2018-03-29T06:46:33.337Z,57.70
2018-03-29T06:47:05.037Z,68.75
2018-03-29T06:47:36.696Z,63.30
2018-03-29T06:48:08.359Z,69.30
2018-03-29T06:48:40.041Z,70.10